METAR Data
IDs: Format: Raw Decoded Include TAF

Data at: 1345 UTC 17 Sep 2019

METAR for:TJSJ (San Juan/Marin Intl, PR, US)
Text:TJSJ 171256Z 09015G21KT 9SM FEW024 SCT040 BKN090 31/26 A2993 RMK AO2 SLP134 HZ ALQDS T03060256
Temperature: 30.6°C ( 87°F)
Dewpoint: 25.6°C ( 78°F) [RH = 75%]
Pressure (altimeter):29.93 inches Hg (1013.6 mb) [Sea level pressure: 1013.4 mb]
Winds:from the E (90 degrees) at 17 MPH (15 knots; 7.7 m/s) gusting to 24 MPH (21 knots; 10.8 m/s)
Visibility: 9 sm ( 14 km)
Ceiling:9000 feet AGL
Clouds: few clouds at 2400 feet AGL, scattered clouds at 4000 feet AGL, broken clouds at 9000 feet AGL